createdAt,value
2019-04-27T00:01:40.607Z,37.03
2019-04-27T00:04:34.295Z,35.37
2019-04-27T00:07:24.331Z,38.57
2019-04-27T00:09:58.610Z,37.57
2019-04-27T00:12:28.892Z,37.63
2019-04-27T00:14:59.521Z,36.73
2019-04-27T00:17:58.278Z,36.60
2019-04-27T00:20:53.567Z,37.77
2019-04-27T00:23:24.855Z,41.40
2019-04-27T00:25:55.402Z,44.40
2019-04-27T00:28:25.855Z,39.98
2019-04-27T00:30:56.658Z,39.50
2019-04-27T00:33:27.006Z,39.73
2019-04-27T00:36:08.480Z,36.70
2019-04-27T00:39:03.526Z,38.83
2019-04-27T00:41:34.672Z,35.97
2019-04-27T00:44:05.073Z,37.23
2019-04-27T00:46:35.562Z,36.13
2019-04-27T00:49:07.279Z,38.80
2019-04-27T00:51:37.725Z,37.00
2019-04-27T00:54:08.100Z,37.50
2019-04-27T00:57:03.253Z,38.80
2019-04-27T00:59:55.097Z,38.23
2019-04-27T01:02:43.504Z,38.67
2019-04-27T01:05:18.427Z,40.67
2019-04-27T01:07:48.822Z,38.70
2019-04-27T01:10:19.351Z,39.03
2019-04-27T01:12:49.861Z,39.33
2019-04-27T01:15:20.455Z,42.90
2019-04-27T01:17:50.937Z,39.77
2019-04-27T01:20:21.327Z,37.50
2019-04-27T01:22:51.823Z,38.17
2019-04-27T01:25:23.946Z,38.07
2019-04-27T01:28:01.247Z,38.00
2019-04-27T01:30:42.705Z,43.17
2019-04-27T01:33:13.231Z,41.75
2019-04-27T01:35:43.633Z,46.98
2019-04-27T01:38:13.991Z,39.90
2019-04-27T01:40:44.321Z,45.63
2019-04-27T01:43:14.698Z,46.08
2019-04-27T01:45:45.142Z,45.23
2019-04-27T01:48:30.611Z,46.47
2019-04-27T01:51:09.111Z,47.17
2019-04-27T01:53:39.163Z,45.47
2019-04-27T01:56:09.655Z,42.23
2019-04-27T01:58:40.022Z,41.13
2019-04-27T02:01:25.665Z,40.40
2019-04-27T02:04:24.629Z,38.50
2019-04-27T02:06:58.890Z,38.53
2019-04-27T02:09:29.565Z,38.53
2019-04-27T02:12:00.038Z,36.90
2019-04-27T02:14:30.442Z,40.37
2019-04-27T02:17:00.967Z,42.67
2019-04-27T02:19:31.932Z,40.70
2019-04-27T02:22:02.428Z,42.43
2019-04-27T02:24:32.787Z,40.30
2019-04-27T02:27:03.258Z,42.63
2019-04-27T02:29:50.777Z,39.17
2019-04-27T02:32:35.072Z,38.08
2019-04-27T02:35:09.306Z,40.87
2019-04-27T02:37:40.458Z,40.87
2019-04-27T02:40:53.228Z,38.20
2019-04-27T02:43:29.667Z,34.67
2019-04-27T02:46:00.617Z,36.47
2019-04-27T02:48:31.007Z,37.97
2019-04-27T02:51:04.230Z,36.70
2019-04-27T02:53:52.214Z,37.67
2019-04-27T02:56:22.740Z,40.97
2019-04-27T02:58:53.269Z,37.83
2019-04-27T03:01:25.357Z,34.63
2019-04-27T03:03:56.058Z,38.07
2019-04-27T03:06:26.580Z,35.37
2019-04-27T03:08:57.073Z,36.80
2019-04-27T03:11:30.485Z,33.23
2019-04-27T03:14:29.383Z,38.27
2019-04-27T03:17:00.211Z,38.90
2019-04-27T03:19:53.581Z,37.77
2019-04-27T03:22:45.232Z,37.33
2019-04-27T03:25:35.026Z,36.40
2019-04-27T03:28:11.149Z,33.73
2019-04-27T03:30:43.468Z,35.47
2019-04-27T03:33:14.043Z,35.00
2019-04-27T03:35:44.432Z,36.90
2019-04-27T03:38:14.950Z,33.77
2019-04-27T03:40:45.479Z,39.63
2019-04-27T03:43:20.210Z,44.50
2019-04-27T03:45:52.478Z,44.47
2019-04-27T03:48:22.925Z,46.57
2019-04-27T03:51:14.948Z,49.70
2019-04-27T03:54:13.381Z,45.73
2019-04-27T03:56:46.471Z,44.60
2019-04-27T03:59:23.423Z,39.37
2019-04-27T04:01:53.783Z,40.30
2019-04-27T04:04:24.074Z,40.30
2019-04-27T04:06:54.354Z,38.77
2019-04-27T04:09:40.338Z,37.70
2019-04-27T04:12:19.742Z,38.40
2019-04-27T04:14:49.911Z,33.60
2019-04-27T04:17:21.835Z,37.98
2019-04-27T04:19:57.463Z,37.93
2019-04-27T04:22:24.755Z,37.07
2019-04-27T04:24:55.414Z,34.77
2019-04-27T04:27:26.070Z,36.47
2019-04-27T04:29:59.237Z,38.90
2019-04-27T04:32:29.789Z,35.50
2019-04-27T04:35:21.858Z,36.03
2019-04-27T04:37:53.398Z,34.73
2019-04-27T04:43:23.377Z,30.10
2019-04-27T04:46:13.171Z,35.63
2019-04-27T04:48:43.562Z,33.30
2019-04-27T04:51:14.051Z,33.07
2019-04-27T04:53:44.626Z,34.07
2019-04-27T04:56:15.200Z,34.27
2019-04-27T04:58:45.590Z,31.83
2019-04-27T05:01:16.229Z,30.17
2019-04-27T05:03:46.711Z,30.47
2019-04-27T05:06:18.993Z,33.37
2019-04-27T05:08:49.508Z,31.67
2019-04-27T05:11:19.966Z,29.30
2019-04-27T05:13:50.646Z,27.13
2019-04-27T05:18:46.387Z,27.53
2019-04-27T05:21:35.651Z,30.17
2019-04-27T05:24:09.211Z,24.85
2019-04-27T05:26:39.799Z,29.13
2019-04-27T05:31:42.321Z,27.83
2019-04-27T05:34:13.451Z,26.50
2019-04-27T05:36:48.987Z,29.20
2019-04-27T05:39:18.074Z,26.95
2019-04-27T05:41:49.750Z,26.33
2019-04-27T05:44:45.512Z,23.62
2019-04-27T05:47:26.182Z,22.37
2019-04-27T05:50:03.072Z,24.73
2019-04-27T05:52:33.726Z,24.47
2019-04-27T05:55:04.486Z,21.87
2019-04-27T05:57:34.872Z,20.20
2019-04-27T06:00:06.121Z,20.20
2019-04-27T06:02:36.613Z,19.97
2019-04-27T06:05:09.141Z,24.60
2019-04-27T06:07:39.805Z,23.00
2019-04-27T06:10:10.572Z,20.83
2019-04-27T06:12:41.397Z,19.00
2019-04-27T06:15:13.260Z,21.40
2019-04-27T06:17:43.871Z,23.33
2019-04-27T06:20:14.875Z,22.63
2019-04-27T06:22:45.434Z,22.80
2019-04-27T06:25:15.971Z,23.47
2019-04-27T06:27:46.497Z,23.47
2019-04-27T06:30:16.936Z,22.47
2019-04-27T06:32:49.312Z,21.00
2019-04-27T06:35:19.691Z,21.90
2019-04-27T06:37:50.215Z,21.03
2019-04-27T06:40:20.957Z,16.67
2019-04-27T06:42:51.905Z,16.00
2019-04-27T06:45:22.618Z,17.92
2019-04-27T06:47:53.207Z,15.10
2019-04-27T06:50:23.787Z,16.67
2019-04-27T06:52:54.316Z,15.00
2019-04-27T06:55:24.857Z,16.77
2019-04-27T06:57:55.424Z,15.85
2019-04-27T07:00:26.003Z,13.23
2019-04-27T07:02:56.662Z,12.53
2019-04-27T07:05:28.755Z,12.47
2019-04-27T07:07:59.601Z,15.23
2019-04-27T07:10:30.068Z,13.83
2019-04-27T07:13:00.682Z,11.30
2019-04-27T07:15:31.395Z,13.07
2019-04-27T07:18:01.856Z,11.13
2019-04-27T07:20:32.593Z,11.30
2019-04-27T07:23:03.201Z,12.40
2019-04-27T07:25:33.675Z,14.00
2019-04-27T07:28:04.424Z,9.97
2019-04-27T07:30:34.655Z,16.00
2019-04-27T07:33:04.938Z,10.70
2019-04-27T07:35:35.365Z,10.67
2019-04-27T07:38:06.724Z,13.00
2019-04-27T07:40:40.006Z,15.27
2019-04-27T07:43:16.413Z,14.50
2019-04-27T07:45:46.794Z,10.60
2019-04-27T07:48:18.797Z,10.45
2019-04-27T07:50:49.229Z,14.17
2019-04-27T07:53:19.439Z,9.50
2019-04-27T07:55:49.862Z,10.63
2019-04-27T07:58:20.531Z,8.47
2019-04-27T08:00:51.991Z,12.07
2019-04-27T08:03:22.287Z,10.15
2019-04-27T08:05:55.674Z,11.50
2019-04-27T08:08:25.900Z,12.73
2019-04-27T08:10:56.035Z,9.90
2019-04-27T08:13:27.383Z,10.20
2019-04-27T08:15:59.028Z,8.43
2019-04-27T08:18:29.935Z,10.97
2019-04-27T08:21:00.334Z,12.40
2019-04-27T08:23:30.539Z,9.00
2019-04-27T08:26:00.853Z,11.73
2019-04-27T08:28:56.316Z,12.10
2019-04-27T08:31:35.286Z,13.60
2019-04-27T08:34:08.541Z,12.93
2019-04-27T08:36:38.937Z,10.70
2019-04-27T08:39:09.470Z,10.13
2019-04-27T08:41:39.826Z,9.53
2019-04-27T08:44:10.143Z,11.67
2019-04-27T08:46:40.310Z,8.43
2019-04-27T08:49:10.445Z,12.60
2019-04-27T08:51:41.610Z,9.73
2019-04-27T08:54:11.869Z,10.35
2019-04-27T08:56:42.290Z,10.20
2019-04-27T08:59:12.725Z,10.13
2019-04-27T09:01:42.974Z,9.60
2019-04-27T09:04:13.200Z,10.13
2019-04-27T09:06:44.993Z,8.00
2019-04-27T09:09:24.485Z,11.10
2019-04-27T09:12:00.781Z,10.23
2019-04-27T09:14:36.483Z,11.77
2019-04-27T09:17:17.136Z,11.97
2019-04-27T09:19:53.400Z,8.43
2019-04-27T09:22:23.698Z,8.58
2019-04-27T09:24:54.012Z,8.78
2019-04-27T09:27:24.374Z,8.67
2019-04-27T09:29:54.664Z,10.80
2019-04-27T09:32:25.097Z,9.13
2019-04-27T09:34:56.964Z,10.10
2019-04-27T09:37:27.556Z,8.03
2019-04-27T09:39:57.846Z,8.57
2019-04-27T09:42:28.204Z,8.53
2019-04-27T09:44:59.126Z,8.17
2019-04-27T09:47:29.557Z,9.23
2019-04-27T09:49:59.765Z,6.93
2019-04-27T09:52:30.175Z,6.53
2019-04-27T09:55:00.349Z,6.93
2019-04-27T09:57:30.711Z,8.13
2019-04-27T10:00:01.153Z,8.27
2019-04-27T10:02:31.499Z,6.83
2019-04-27T10:05:01.915Z,7.07
2019-04-27T10:07:32.167Z,6.63
2019-04-27T10:10:02.403Z,7.03
2019-04-27T10:12:34.360Z,8.57
2019-04-27T10:15:06.727Z,6.80
2019-04-27T10:17:37.178Z,8.00
2019-04-27T10:20:08.481Z,7.83
2019-04-27T10:22:42.858Z,5.07
2019-04-27T10:25:23.139Z,8.60
2019-04-27T10:27:59.270Z,6.00
2019-04-27T10:30:31.007Z,6.13
2019-04-27T10:33:01.440Z,8.87
2019-04-27T10:35:31.758Z,7.80
2019-04-27T10:38:02.001Z,7.80
2019-04-27T10:40:32.304Z,7.20
2019-04-27T10:43:03.252Z,6.50
2019-04-27T10:45:33.596Z,11.20
2019-04-27T10:48:04.050Z,8.23
2019-04-27T10:50:36.444Z,8.63
2019-04-27T10:53:07.281Z,9.13
2019-04-27T10:55:37.657Z,8.70
2019-04-27T10:58:08.113Z,8.00
2019-04-27T11:00:43.939Z,8.93
2019-04-27T11:03:16.725Z,9.23
2019-04-27T11:06:03.634Z,7.57
2019-04-27T11:08:33.866Z,8.70
2019-04-27T11:11:04.185Z,9.50
2019-04-27T11:13:36.207Z,8.43
2019-04-27T11:16:07.101Z,7.93
2019-04-27T11:18:37.337Z,10.03
2019-04-27T11:21:07.517Z,6.60
2019-04-27T11:23:37.764Z,9.93
2019-04-27T11:26:07.880Z,8.60
2019-04-27T11:28:37.989Z,8.07
2019-04-27T11:31:09.172Z,7.57
2019-04-27T11:33:39.527Z,6.67
2019-04-27T11:36:27.289Z,8.30
2019-04-27T11:38:58.677Z,8.83
2019-04-27T11:41:29.012Z,7.80
2019-04-27T11:43:59.237Z,9.17
2019-04-27T11:46:29.571Z,7.60
2019-04-27T11:48:59.840Z,6.90
2019-04-27T11:51:30.194Z,6.07
2019-04-27T11:54:00.459Z,10.20
2019-04-27T11:56:30.809Z,6.33
2019-04-27T11:59:01.148Z,6.90
2019-04-27T12:01:31.484Z,6.73
2019-04-27T12:04:01.791Z,6.77
2019-04-27T12:06:32.225Z,5.87
2019-04-27T12:09:02.517Z,5.87
2019-04-27T12:11:32.685Z,4.83
2019-04-27T12:14:02.961Z,6.03
2019-04-27T12:16:33.236Z,6.37
2019-04-27T12:19:03.662Z,6.83
2019-04-27T12:21:33.942Z,6.80
2019-04-27T12:24:04.802Z,6.17
2019-04-27T12:26:44.983Z,7.80
2019-04-27T12:29:18.449Z,7.35
2019-04-27T12:31:56.075Z,5.17
2019-04-27T12:34:27.879Z,6.93
2019-04-27T12:36:57.709Z,7.17
2019-04-27T12:39:27.996Z,5.30
2019-04-27T12:41:58.351Z,5.07
2019-04-27T12:44:28.685Z,7.20
2019-04-27T12:47:02.712Z,8.40
2019-04-27T12:49:31.024Z,6.83
2019-04-27T12:52:01.494Z,6.87
2019-04-27T12:54:46.371Z,8.13
2019-04-27T12:57:36.287Z,7.72
2019-04-27T13:00:30.298Z,9.60
2019-04-27T13:03:00.714Z,8.90
2019-04-27T13:05:31.485Z,8.33
2019-04-27T13:08:01.758Z,8.07
2019-04-27T13:10:32.062Z,10.43
2019-04-27T13:13:02.316Z,6.17
2019-04-27T13:15:32.704Z,7.50
2019-04-27T13:18:03.112Z,8.67
2019-04-27T13:20:33.458Z,7.30
2019-04-27T13:23:03.862Z,8.23
2019-04-27T13:25:34.222Z,9.67
2019-04-27T13:28:05.676Z,6.00
2019-04-27T13:30:36.183Z,10.50
2019-04-27T13:33:06.972Z,9.90
2019-04-27T13:35:37.343Z,8.67
2019-04-27T13:38:07.631Z,8.17
2019-04-27T13:40:39.729Z,11.70
2019-04-27T13:43:22.065Z,8.80
2019-04-27T13:46:23.461Z,7.97
2019-04-27T13:49:11.251Z,12.43
2019-04-27T13:52:01.295Z,10.37
2019-04-27T13:54:31.585Z,13.00
2019-04-27T13:57:01.929Z,11.20
2019-04-27T13:59:32.131Z,14.07
2019-04-27T14:02:02.481Z,9.83
2019-04-27T14:04:32.778Z,13.50
2019-04-27T14:07:03.278Z,11.30
2019-04-27T14:09:33.567Z,16.83
2019-04-27T14:12:21.414Z,15.67
2019-04-27T14:14:52.012Z,11.73
2019-04-27T14:17:22.293Z,10.82
2019-04-27T14:19:52.514Z,10.77
2019-04-27T14:22:22.714Z,9.10
2019-04-27T14:24:53.173Z,11.80
2019-04-27T14:27:25.660Z,8.18
2019-04-27T14:29:57.647Z,9.53
2019-04-27T14:32:28.718Z,8.80
2019-04-27T14:34:59.282Z,10.20
2019-04-27T14:37:29.539Z,7.00
2019-04-27T14:39:59.948Z,12.10
2019-04-27T14:42:30.177Z,17.23
2019-04-27T14:45:00.658Z,8.73
2019-04-27T14:47:31.244Z,7.30
2019-04-27T14:50:01.492Z,6.40
2019-04-27T14:52:31.743Z,4.00
2019-04-27T14:55:02.153Z,5.67
2019-04-27T14:57:32.438Z,4.73
2019-04-27T15:00:02.773Z,4.50
2019-04-27T15:02:33.192Z,5.33
2019-04-27T15:05:03.655Z,4.47
2019-04-27T15:07:34.419Z,4.87
2019-04-27T15:10:04.857Z,8.50
2019-04-27T15:12:35.338Z,5.10
2019-04-27T15:15:06.739Z,7.43
2019-04-27T15:17:37.048Z,7.40
2019-04-27T15:20:11.866Z,4.57
2019-04-27T15:22:42.459Z,3.80
2019-04-27T15:25:15.584Z,7.03
2019-04-27T15:27:50.610Z,6.30
2019-04-27T15:30:29.937Z,4.33
2019-04-27T15:33:21.879Z,5.30
2019-04-27T15:35:59.485Z,6.90
2019-04-27T15:38:33.328Z,4.73
2019-04-27T15:41:34.404Z,3.27
2019-04-27T15:44:08.855Z,2.17
2019-04-27T15:46:39.103Z,1.70
2019-04-27T15:49:11.264Z,2.70
2019-04-27T15:51:42.452Z,2.90
2019-04-27T15:54:12.629Z,3.90
2019-04-27T15:56:43.019Z,2.50
2019-04-27T15:59:13.281Z,2.47
2019-04-27T16:01:43.637Z,2.20
2019-04-27T16:04:14.180Z,3.77
2019-04-27T16:06:47.559Z,3.00
2019-04-27T16:09:24.316Z,2.62
2019-04-27T16:11:58.731Z,3.87
2019-04-27T16:14:22.812Z,4.97
2019-04-27T16:16:53.395Z,3.30
2019-04-27T16:19:24.012Z,3.90
2019-04-27T16:21:54.634Z,3.10
2019-04-27T16:24:25.164Z,4.90
2019-04-27T16:26:56.545Z,3.40
2019-04-27T16:29:28.092Z,4.57
2019-04-27T16:32:02.781Z,2.85
2019-04-27T16:34:36.982Z,3.93
2019-04-27T16:37:04.167Z,4.33
2019-04-27T16:39:38.761Z,3.50
2019-04-27T16:42:09.973Z,6.43
2019-04-27T16:44:40.234Z,4.97
2019-04-27T16:47:12.490Z,5.30
2019-04-27T16:49:44.199Z,6.33
2019-04-27T16:52:15.913Z,3.65
2019-04-27T16:54:49.945Z,3.10
2019-04-27T16:57:19.582Z,1.67
2019-04-27T16:59:54.825Z,2.10
2019-04-27T17:02:25.121Z,1.43
2019-04-27T17:05:03.361Z,3.17
2019-04-27T17:07:41.758Z,3.03
2019-04-27T17:10:11.283Z,3.30
2019-04-27T17:12:45.806Z,4.97
2019-04-27T17:15:31.350Z,4.97
2019-04-27T17:18:19.867Z,3.83
2019-04-27T17:20:52.718Z,7.73
2019-04-27T17:23:31.677Z,6.30
2019-04-27T17:26:09.551Z,5.90
2019-04-27T17:28:40.204Z,3.67
2019-04-27T17:31:12.886Z,6.70
2019-04-27T17:33:48.777Z,7.30
2019-04-27T17:36:20.296Z,4.60
2019-04-27T17:38:51.213Z,4.92
2019-04-27T17:41:21.692Z,5.87
2019-04-27T17:43:51.938Z,4.73
2019-04-27T17:46:22.311Z,5.73
2019-04-27T17:48:52.755Z,5.67
2019-04-27T17:51:23.230Z,6.87
2019-04-27T17:53:53.615Z,8.30
2019-04-27T17:56:35.359Z,4.90
2019-04-27T17:58:58.445Z,6.73
2019-04-27T18:01:31.844Z,4.97
2019-04-27T18:04:03.010Z,5.10
2019-04-27T18:06:33.904Z,8.27
2019-04-27T18:09:08.266Z,16.33
2019-04-27T18:11:39.150Z,6.53
2019-04-27T18:14:14.563Z,5.40
2019-04-27T18:16:43.871Z,6.63
2019-04-27T18:22:10.145Z,9.37
2019-04-27T18:24:48.630Z,5.83
2019-04-27T18:27:26.709Z,9.48
2019-04-27T18:30:10.529Z,5.80
2019-04-27T18:32:41.539Z,6.60
2019-04-27T18:35:12.329Z,5.50
2019-04-27T18:37:43.045Z,7.83
2019-04-27T18:40:13.814Z,7.97
2019-04-27T18:42:45.080Z,8.00
2019-04-27T18:45:18.703Z,6.78
2019-04-27T18:47:54.840Z,9.83
2019-04-27T18:50:38.345Z,8.80
2019-04-27T18:55:44.029Z,7.83
2019-04-27T18:58:14.702Z,5.15
2019-04-27T19:00:45.324Z,8.13
2019-04-27T19:03:16.165Z,5.33
2019-04-27T19:05:48.186Z,7.87
2019-04-27T19:08:21.943Z,7.60
2019-04-27T19:10:52.700Z,5.60
2019-04-27T19:16:02.878Z,7.63
2019-04-27T19:24:15.900Z,6.77
2019-04-27T19:27:18.074Z,7.57
2019-04-27T19:30:02.548Z,8.53
2019-04-27T19:32:33.254Z,10.43
2019-04-27T19:35:04.090Z,7.70
2019-04-27T19:37:34.574Z,6.97
2019-04-27T19:40:08.613Z,8.63
2019-04-27T19:42:39.184Z,8.40
2019-04-27T19:45:11.214Z,6.57
2019-04-27T19:47:54.060Z,7.07
2019-04-27T19:50:24.630Z,5.13
2019-04-27T19:52:58.746Z,8.03
2019-04-27T19:55:30.324Z,12.13
2019-04-27T19:58:02.446Z,8.27
2019-04-27T20:01:11.158Z,8.33
2019-04-27T20:03:39.598Z,9.27
2019-04-27T20:06:10.430Z,10.37
2019-04-27T20:08:43.427Z,8.97
2019-04-27T20:11:15.947Z,7.15
2019-04-27T20:13:46.873Z,9.47
2019-04-27T20:16:17.651Z,7.80
2019-04-27T20:19:06.204Z,6.53
2019-04-27T20:21:37.337Z,6.87
2019-04-27T20:24:09.561Z,6.30
2019-04-27T20:26:40.545Z,5.87
2019-04-27T20:29:11.910Z,7.97
2019-04-27T20:31:45.167Z,5.73
2019-04-27T20:34:26.526Z,5.22
2019-04-27T20:36:57.246Z,7.77
2019-04-27T20:39:27.785Z,6.67
2019-04-27T20:41:58.434Z,6.47
2019-04-27T20:44:34.169Z,9.03
2019-04-27T20:47:04.816Z,5.67
2019-04-27T20:49:35.542Z,6.37
2019-04-27T20:52:25.540Z,5.90
2019-04-27T20:54:56.602Z,9.03
2019-04-27T20:57:29.539Z,7.70
2019-04-27T21:00:01.954Z,7.03
2019-04-27T21:02:51.955Z,10.03
2019-04-27T21:05:45.329Z,8.23
2019-04-27T21:08:15.875Z,8.73
2019-04-27T21:10:46.473Z,10.67
2019-04-27T21:13:17.047Z,8.47
2019-04-27T21:15:47.840Z,11.47
2019-04-27T21:18:18.280Z,8.43
2019-04-27T21:20:48.979Z,6.30
2019-04-27T21:23:31.184Z,7.83
2019-04-27T21:26:02.271Z,9.23
2019-04-27T21:28:34.449Z,9.10
2019-04-27T21:31:05.216Z,8.47
2019-04-27T21:33:36.029Z,10.33
2019-04-27T21:36:07.877Z,10.83
2019-04-27T21:38:38.294Z,7.90
2019-04-27T21:41:14.923Z,9.97
2019-04-27T21:43:48.186Z,10.87
2019-04-27T21:46:26.308Z,14.10
2019-04-27T21:48:57.240Z,9.87
2019-04-27T21:51:29.645Z,8.77
2019-04-27T21:54:30.800Z,9.47
2019-04-27T21:57:02.797Z,9.10
2019-04-27T21:59:34.988Z,13.90
2019-04-27T22:02:07.364Z,7.80
2019-04-27T22:04:38.078Z,7.73
2019-04-27T22:07:09.028Z,7.63
2019-04-27T22:09:43.038Z,6.53
2019-04-27T22:12:22.956Z,6.93
2019-04-27T22:14:53.966Z,14.63
2019-04-27T22:17:24.328Z,9.77
2019-04-27T22:19:56.326Z,7.77
2019-04-27T22:22:33.885Z,10.87
2019-04-27T22:25:11.540Z,10.40
2019-04-27T22:27:52.551Z,11.20
2019-04-27T22:30:21.903Z,8.95
2019-04-27T22:32:56.409Z,8.27
2019-04-27T22:35:26.862Z,6.67
2019-04-27T22:38:01.960Z,6.30
2019-04-27T22:41:04.630Z,9.43
2019-04-27T22:43:56.950Z,6.30
2019-04-27T22:46:27.798Z,6.63
2019-04-27T22:49:01.836Z,7.13
2019-04-27T22:51:32.599Z,6.40
2019-04-27T22:54:11.800Z,9.03
2019-04-27T22:56:44.760Z,5.80
2019-04-27T22:59:43.309Z,5.12
2019-04-27T23:02:31.972Z,6.40
2019-04-27T23:05:10.752Z,6.87
2019-04-27T23:07:41.525Z,7.23
2019-04-27T23:10:12.468Z,7.73
2019-04-27T23:12:43.197Z,6.83
2019-04-27T23:15:18.144Z,5.60
2019-04-27T23:18:02.496Z,7.20
2019-04-27T23:20:35.624Z,5.80
2019-04-27T23:23:07.693Z,5.95
2019-04-27T23:25:41.018Z,6.97
2019-04-27T23:28:11.446Z,6.30
2019-04-27T23:31:13.338Z,7.03
2019-04-27T23:33:47.716Z,5.30
2019-04-27T23:36:18.833Z,5.03
2019-04-27T23:38:50.875Z,6.37
2019-04-27T23:41:21.390Z,5.77
2019-04-27T23:43:52.400Z,8.35
2019-04-27T23:46:24.912Z,6.92
2019-04-27T23:49:08.995Z,4.60
2019-04-27T23:52:03.558Z,5.63
2019-04-27T23:54:36.020Z,5.67
2019-04-27T23:57:07.949Z,7.88
2019-04-27T23:59:38.755Z,7.93
